Moon Township, Pennsylvania
Current Conditions -  °F | °C
As of 12:33 AM on Wednesday 22 Oct 2014 (Local Time) from KPIT Reporting Station
Drizzle Drizzle  
Wind Chill: 44°   Ceiling: 1000
Heat Index: 48°   Visibility: 10mi
Dew Point: 47°   Wind: 9mph
Humidity: 96%   Direction: 330°NNW
Pressure: 30.03"   Gusts: NA
Location:  40.5042°N, 80.1934°W
Report Text: KPIT 220433Z 33008KT 10SM -DZ SCT006 BKN010 OVC022 09/08 A3003 RMK AO2 RAE00DZB00 CIG 006 SE P0000 T00890083
Loading
Personal Weather Stations






























Interactive Weather Map
Tropical Storm Tracking
New forecast layout! Learn more

10-Day Weather Forecast

Advertisements
Track Severe Weather on mobile